createdAt,value
2022-09-10T00:01:23.739Z,46.65
2022-09-10T00:03:51.128Z,46.19
2022-09-10T00:06:19.066Z,45.82
2022-09-10T00:08:47.311Z,45.72
2022-09-10T00:11:15.115Z,46.55
2022-09-10T00:13:43.123Z,47.51
2022-09-10T00:16:12.963Z,47.47
2022-09-10T00:18:40.737Z,47.23
2022-09-10T00:21:10.461Z,46.53
2022-09-10T00:23:37.905Z,46.64
2022-09-10T00:26:16.791Z,45.86
2022-09-10T00:28:44.092Z,45.67
2022-09-10T00:31:11.304Z,45.48
2022-09-10T00:33:38.271Z,45.37
2022-09-10T00:36:14.548Z,45.42
2022-09-10T00:38:41.995Z,45.32
2022-09-10T00:41:09.291Z,45.35
2022-09-10T00:44:00.559Z,46.00
2022-09-10T00:46:36.721Z,45.78
2022-09-10T00:49:13.001Z,45.65
2022-09-10T00:51:40.950Z,45.91
2022-09-10T00:54:08.025Z,45.84
2022-09-10T00:56:35.273Z,46.31
2022-09-10T00:59:04.587Z,45.72
2022-09-10T01:01:33.689Z,45.86
2022-09-10T01:04:01.576Z,45.62
2022-09-10T01:06:28.641Z,45.76
2022-09-10T01:08:55.723Z,45.80
2022-09-10T01:11:37.838Z,45.74
2022-09-10T01:14:26.960Z,45.88
2022-09-10T01:17:10.035Z,46.04
2022-09-10T01:19:58.675Z,46.87
2022-09-10T01:22:37.727Z,46.35
2022-09-10T01:25:43.744Z,46.07
2022-09-10T01:28:21.481Z,46.18
2022-09-10T01:30:54.759Z,46.25
2022-09-10T01:33:43.092Z,46.07
2022-09-10T01:36:23.984Z,46.25
2022-09-10T01:38:52.003Z,46.20
2022-09-10T01:41:24.078Z,45.97
2022-09-10T01:43:50.971Z,46.13
2022-09-10T01:46:29.963Z,46.14
2022-09-10T01:49:09.784Z,47.43
2022-09-10T01:51:56.411Z,47.59
2022-09-10T01:54:52.002Z,47.17
2022-09-10T01:58:00.567Z,46.54
2022-09-10T02:00:38.434Z,46.41
2022-09-10T02:03:11.451Z,46.28
2022-09-10T02:05:42.059Z,46.03
2022-09-10T02:08:17.064Z,45.80
2022-09-10T02:10:50.866Z,45.76
2022-09-10T02:13:17.848Z,45.50
2022-09-10T02:16:08.293Z,45.89
2022-09-10T02:18:42.793Z,45.58
2022-09-10T02:21:12.073Z,46.24
2022-09-10T02:23:50.620Z,46.12
2022-09-10T02:26:17.541Z,46.25
2022-09-10T02:28:44.762Z,45.81
2022-09-10T02:31:12.896Z,45.67
2022-09-10T02:33:39.866Z,45.68
2022-09-10T02:36:06.834Z,46.03
2022-09-10T02:38:33.713Z,45.82
2022-09-10T02:41:00.644Z,45.46
2022-09-10T02:43:28.359Z,45.70
2022-09-10T02:45:59.105Z,45.49
2022-09-10T02:48:27.127Z,45.50
2022-09-10T02:50:57.447Z,45.31
2022-09-10T02:53:26.981Z,45.98
2022-09-10T02:55:56.778Z,45.86
2022-09-10T02:58:24.175Z,45.63
2022-09-10T03:00:51.755Z,45.77
2022-09-10T03:03:18.681Z,46.02
2022-09-10T03:05:45.445Z,45.79
2022-09-10T03:08:13.766Z,46.11
2022-09-10T03:10:43.637Z,46.62
2022-09-10T03:13:11.233Z,46.12
2022-09-10T03:15:38.292Z,46.37
2022-09-10T03:18:05.724Z,46.31
2022-09-10T03:20:32.583Z,46.04
2022-09-10T03:22:59.353Z,46.00
2022-09-10T03:25:26.178Z,46.62
2022-09-10T03:27:57.355Z,46.27
2022-09-10T03:30:26.151Z,46.17
2022-09-10T03:32:54.629Z,46.49
2022-09-10T03:35:22.404Z,46.62
2022-09-10T03:37:49.548Z,46.60
2022-09-10T03:40:17.016Z,46.62
2022-09-10T03:42:44.088Z,47.14
2022-09-10T03:45:12.098Z,47.40
2022-09-10T03:47:39.479Z,47.16
2022-09-10T03:50:06.872Z,47.53
2022-09-10T03:52:33.760Z,48.52
2022-09-10T03:55:01.768Z,48.04
2022-09-10T03:57:28.738Z,48.21
2022-09-10T03:59:56.671Z,47.42
2022-09-10T04:02:24.062Z,47.37
2022-09-10T04:04:50.830Z,47.69
2022-09-10T04:07:17.739Z,47.27
2022-09-10T04:09:44.705Z,47.09
2022-09-10T04:12:12.368Z,47.04
2022-09-10T04:14:39.456Z,47.07
2022-09-10T04:17:06.389Z,47.03
2022-09-10T04:19:33.279Z,47.65
2022-09-10T04:22:00.132Z,48.46
2022-09-10T04:24:27.004Z,47.49
2022-09-10T04:26:54.204Z,47.38
2022-09-10T04:29:23.035Z,47.00
2022-09-10T04:31:50.711Z,46.81
2022-09-10T04:34:18.827Z,46.83
2022-09-10T04:36:46.063Z,46.53
2022-09-10T04:39:14.585Z,46.66
2022-09-10T04:41:42.399Z,45.95
2022-09-10T04:44:10.176Z,45.95
2022-09-10T04:46:37.536Z,46.61
2022-09-10T04:49:08.556Z,46.17
2022-09-10T04:51:35.439Z,47.32
2022-09-10T04:54:02.299Z,46.92
2022-09-10T04:56:33.302Z,46.80
2022-09-10T04:59:00.939Z,47.84
2022-09-10T05:01:31.277Z,47.38
2022-09-10T05:03:58.139Z,46.83
2022-09-10T05:06:25.211Z,47.09
2022-09-10T05:08:52.164Z,47.00
2022-09-10T05:11:19.848Z,46.85
2022-09-10T05:13:47.808Z,48.55
2022-09-10T05:16:18.271Z,48.07
2022-09-10T05:18:45.707Z,47.54
2022-09-10T05:21:13.364Z,47.55
2022-09-10T05:23:41.783Z,46.78
2022-09-10T05:26:10.232Z,47.18
2022-09-10T05:28:37.552Z,48.02
2022-09-10T05:31:07.348Z,47.34
2022-09-10T05:33:34.545Z,47.42
2022-09-10T05:36:01.705Z,48.14
2022-09-10T05:38:29.941Z,47.83
2022-09-10T05:40:57.765Z,48.15
2022-09-10T05:43:27.680Z,48.67
2022-09-10T05:45:55.927Z,47.94
2022-09-10T05:48:22.951Z,48.73
2022-09-10T05:50:49.738Z,49.26
2022-09-10T05:53:17.020Z,49.24
2022-09-10T05:55:46.036Z,49.63
2022-09-10T05:58:13.657Z,48.84
2022-09-10T06:00:43.237Z,48.44
2022-09-10T06:03:10.520Z,49.77
2022-09-10T06:05:52.448Z,47.34
2022-09-10T06:08:24.309Z,46.03
2022-09-10T06:11:06.573Z,46.90
2022-09-10T06:13:42.296Z,47.02
2022-09-10T06:16:10.191Z,46.98
2022-09-10T06:18:38.461Z,48.23
2022-09-10T06:21:15.328Z,49.31
2022-09-10T06:23:45.302Z,48.82
2022-09-10T06:26:20.052Z,49.12
2022-09-10T06:28:52.875Z,48.65
2022-09-10T06:31:20.307Z,47.67
2022-09-10T06:33:49.989Z,48.21
2022-09-10T06:36:23.222Z,46.54
2022-09-10T06:38:51.659Z,46.91
2022-09-10T06:41:21.283Z,46.36
2022-09-10T06:43:54.779Z,46.67
2022-09-10T06:47:32.452Z,47.25
2022-09-10T06:49:31.414Z,47.39
2022-09-10T06:51:58.456Z,46.86
2022-09-10T06:54:26.675Z,48.59
2022-09-10T06:56:58.046Z,47.09
2022-09-10T06:59:25.728Z,46.54
2022-09-10T07:01:55.270Z,47.07
2022-09-10T07:04:22.157Z,48.27
2022-09-10T07:06:49.964Z,47.31
2022-09-10T07:09:17.190Z,44.78
2022-09-10T07:12:04.773Z,45.28
2022-09-10T07:14:35.123Z,45.76
2022-09-10T07:17:05.861Z,45.50
2022-09-10T07:19:36.209Z,44.93
2022-09-10T07:22:06.279Z,44.26
2022-09-10T07:24:34.172Z,45.43
2022-09-10T07:27:11.096Z,43.24
2022-09-10T07:29:41.137Z,42.64
2022-09-10T07:32:13.724Z,43.77
2022-09-10T07:34:41.641Z,44.25
2022-09-10T07:37:08.520Z,43.00
2022-09-10T07:39:35.820Z,41.59
2022-09-10T07:42:03.007Z,41.37
2022-09-10T07:44:34.675Z,44.48
2022-09-10T07:47:03.445Z,41.75
2022-09-10T07:49:31.561Z,41.55
2022-09-10T07:52:00.241Z,42.39
2022-09-10T07:54:32.188Z,41.65
2022-09-10T07:57:00.276Z,40.03
2022-09-10T07:59:28.051Z,41.53
2022-09-10T08:02:00.789Z,39.10
2022-09-10T08:04:36.781Z,39.74
2022-09-10T08:07:07.740Z,40.88
2022-09-10T08:09:37.492Z,39.90
2022-09-10T08:12:07.667Z,38.87
2022-09-10T08:14:35.143Z,38.10
2022-09-10T08:17:01.999Z,40.29
2022-09-10T08:19:29.632Z,39.06
2022-09-10T08:21:56.794Z,38.10
2022-09-10T08:24:31.291Z,38.32
2022-09-10T08:26:58.306Z,38.60
2022-09-10T08:29:25.955Z,38.92
2022-09-10T08:31:52.863Z,40.56
2022-09-10T08:34:27.112Z,40.03
2022-09-10T08:37:03.393Z,40.44
2022-09-10T08:39:33.093Z,39.48
2022-09-10T08:42:05.993Z,38.99
2022-09-10T08:44:54.535Z,37.81
2022-09-10T08:48:16.641Z,38.30
2022-09-10T08:51:13.731Z,38.39
2022-09-10T08:53:53.861Z,40.78
2022-09-10T08:56:23.548Z,38.56
2022-09-10T08:59:17.219Z,37.43
2022-09-10T09:02:01.442Z,37.40
2022-09-10T09:04:30.023Z,37.41
2022-09-10T09:07:02.878Z,38.30
2022-09-10T09:09:30.837Z,38.34
2022-09-10T09:12:15.738Z,37.60
2022-09-10T09:14:50.339Z,37.31
2022-09-10T09:17:58.829Z,36.46
2022-09-10T09:21:00.905Z,36.59
2022-09-10T09:24:02.832Z,37.15
2022-09-10T09:26:36.958Z,36.99
2022-09-10T09:29:28.791Z,36.71
2022-09-10T09:32:00.935Z,38.06
2022-09-10T09:34:36.265Z,37.15
2022-09-10T09:37:12.760Z,36.46
2022-09-10T09:39:55.403Z,36.72
2022-09-10T09:42:32.738Z,37.00
2022-09-10T09:45:18.556Z,37.21
2022-09-10T09:47:46.824Z,36.93
2022-09-10T09:50:14.459Z,37.52
2022-09-10T09:52:44.356Z,37.22
2022-09-10T09:55:29.568Z,37.37
2022-09-10T09:58:21.160Z,37.85
2022-09-10T10:01:03.579Z,36.90
2022-09-10T10:03:58.589Z,36.93
2022-09-10T10:06:29.708Z,37.31
2022-09-10T10:09:39.057Z,35.53
2022-09-10T10:12:07.206Z,35.59
2022-09-10T10:14:41.475Z,35.26
2022-09-10T10:17:37.531Z,34.71
2022-09-10T10:20:10.392Z,34.93
2022-09-10T10:22:40.064Z,33.74
2022-09-10T10:25:34.323Z,33.76
2022-09-10T10:28:01.559Z,34.21
2022-09-10T10:30:31.607Z,33.76
2022-09-10T10:33:00.377Z,33.75
2022-09-10T10:35:30.100Z,33.06
2022-09-10T10:38:18.455Z,33.35
2022-09-10T10:40:51.542Z,33.15
2022-09-10T10:43:47.543Z,32.26
2022-09-10T10:46:20.912Z,32.89
2022-09-10T10:49:33.952Z,31.93
2022-09-10T10:52:15.881Z,32.38
2022-09-10T10:55:13.015Z,32.57
2022-09-10T10:58:02.079Z,32.79
2022-09-10T11:00:40.835Z,30.72
2022-09-10T11:03:16.006Z,30.42
2022-09-10T11:05:53.024Z,30.50
2022-09-10T11:08:32.394Z,30.75
2022-09-10T11:11:49.524Z,30.54
2022-09-10T11:15:02.286Z,31.94
2022-09-10T11:17:46.506Z,30.29
2022-09-10T11:20:28.817Z,30.11
2022-09-10T11:23:18.461Z,30.55
2022-09-10T11:25:57.047Z,32.59
2022-09-10T11:29:14.053Z,40.53
2022-09-10T11:31:49.955Z,42.42
2022-09-10T11:34:41.847Z,47.20
2022-09-10T11:37:17.806Z,47.72
2022-09-10T11:39:50.660Z,47.99
2022-09-10T11:42:30.373Z,49.31
2022-09-10T11:45:18.170Z,47.65
2022-09-10T11:47:50.644Z,47.46
2022-09-10T11:50:23.624Z,47.60
2022-09-10T11:52:51.396Z,47.36
2022-09-10T11:55:18.450Z,47.86
2022-09-10T11:58:03.925Z,47.33
2022-09-10T12:00:36.346Z,47.68
2022-09-10T12:03:21.608Z,47.64
2022-09-10T12:06:10.851Z,48.10
2022-09-10T12:08:44.023Z,49.26
2022-09-10T12:11:38.992Z,50.65
2022-09-10T12:14:17.106Z,50.02
2022-09-10T12:17:03.324Z,52.29
2022-09-10T12:19:37.647Z,51.48
2022-09-10T12:22:20.366Z,51.53
2022-09-10T12:25:07.003Z,51.53
2022-09-10T12:28:06.745Z,51.32
2022-09-10T12:30:33.679Z,51.48
2022-09-10T12:33:07.622Z,51.43
2022-09-10T12:35:34.672Z,53.47
2022-09-10T12:38:42.042Z,56.53
2022-09-10T12:41:29.152Z,55.88
2022-09-10T12:44:00.636Z,55.17
2022-09-10T12:46:31.319Z,54.87
2022-09-10T12:49:01.189Z,53.89
2022-09-10T12:51:49.801Z,53.54
2022-09-10T12:54:50.824Z,52.85
2022-09-10T12:57:20.441Z,53.19
2022-09-10T13:00:12.019Z,51.81
2022-09-10T13:03:07.562Z,51.29
2022-09-10T13:05:39.466Z,51.81
2022-09-10T13:08:12.412Z,52.07
2022-09-10T13:10:40.989Z,53.97
2022-09-10T13:13:43.951Z,53.15
2022-09-10T13:16:20.430Z,52.08
2022-09-10T13:18:48.405Z,51.23
2022-09-10T13:21:23.935Z,51.23
2022-09-10T13:23:52.396Z,51.15
2022-09-10T13:26:48.387Z,49.73
2022-09-10T13:29:52.704Z,50.82
2022-09-10T13:32:37.776Z,50.48
2022-09-10T13:35:19.851Z,50.81
2022-09-10T13:37:56.246Z,50.47
2022-09-10T13:40:38.760Z,50.93
2022-09-10T13:43:20.192Z,50.54
2022-09-10T13:45:52.103Z,50.42
2022-09-10T13:48:23.944Z,50.71
2022-09-10T13:51:06.702Z,51.18
2022-09-10T13:53:35.536Z,50.94
2022-09-10T13:56:11.228Z,50.29
2022-09-10T13:58:48.488Z,50.64
2022-09-10T14:01:15.692Z,49.59
2022-09-10T14:03:42.553Z,49.70
2022-09-10T14:06:21.694Z,48.16
2022-09-10T14:08:56.116Z,47.81
2022-09-10T14:11:30.291Z,46.48
2022-09-10T14:14:03.267Z,45.79
2022-09-10T14:16:39.293Z,45.20
2022-09-10T14:19:15.212Z,45.03
2022-09-10T14:21:43.699Z,44.75
2022-09-10T14:24:29.110Z,45.81
2022-09-10T14:27:16.161Z,46.42
2022-09-10T14:29:43.644Z,46.63
2022-09-10T14:32:31.717Z,46.67
2022-09-10T14:34:59.482Z,47.38
2022-09-10T14:37:44.633Z,46.86
2022-09-10T14:40:21.592Z,46.88
2022-09-10T14:42:50.043Z,47.02
2022-09-10T14:45:40.749Z,46.23
2022-09-10T14:48:38.865Z,47.16
2022-09-10T14:51:14.496Z,46.96
2022-09-10T14:53:42.859Z,46.47
2022-09-10T14:56:25.391Z,45.47
2022-09-10T14:59:01.652Z,43.99
2022-09-10T15:01:29.996Z,42.56
2022-09-10T15:03:58.058Z,43.23
2022-09-10T15:06:26.571Z,43.46
2022-09-10T15:08:56.178Z,42.86
2022-09-10T15:11:26.138Z,42.42
2022-09-10T15:13:56.153Z,42.89
2022-09-10T15:16:25.593Z,42.95
2022-09-10T15:18:52.512Z,43.05
2022-09-10T15:21:19.939Z,42.93
2022-09-10T15:23:48.155Z,43.61
2022-09-10T15:26:15.589Z,44.16
2022-09-10T15:28:42.408Z,44.72
2022-09-10T15:31:10.418Z,45.22
2022-09-10T15:33:37.284Z,45.39
2022-09-10T15:36:04.468Z,46.18
2022-09-10T15:38:31.518Z,48.97
2022-09-10T15:41:13.305Z,49.22
2022-09-10T15:43:43.141Z,50.20
2022-09-10T15:46:16.242Z,48.25
2022-09-10T15:48:43.579Z,48.79
2022-09-10T15:51:17.196Z,48.48
2022-09-10T15:53:46.046Z,48.03
2022-09-10T15:56:13.784Z,47.50
2022-09-10T15:58:41.924Z,47.74
2022-09-10T16:01:12.164Z,47.35
2022-09-10T16:03:45.651Z,47.25
2022-09-10T16:06:14.593Z,47.74
2022-09-10T16:08:42.111Z,47.78
2022-09-10T16:11:11.844Z,47.65
2022-09-10T16:13:39.778Z,48.36
2022-09-10T16:16:10.031Z,49.60
2022-09-10T16:18:36.955Z,48.37
2022-09-10T16:21:09.402Z,47.14
2022-09-10T16:23:37.182Z,48.01
2022-09-10T16:26:07.711Z,47.72
2022-09-10T16:28:35.472Z,48.83
2022-09-10T16:31:13.995Z,51.06
2022-09-10T16:33:41.488Z,51.27
2022-09-10T16:36:09.107Z,50.57
2022-09-10T16:38:35.743Z,50.08
2022-09-10T16:41:04.210Z,49.95
2022-09-10T16:43:35.484Z,49.60
2022-09-10T16:46:03.636Z,50.05
2022-09-10T16:48:31.806Z,49.86
2022-09-10T16:51:07.810Z,49.40
2022-09-10T16:53:38.947Z,49.80
2022-09-10T16:56:08.715Z,49.39
2022-09-10T16:58:36.858Z,48.17
2022-09-10T17:01:06.361Z,47.92
2022-09-10T17:03:33.102Z,46.76
2022-09-10T17:06:00.199Z,46.21
2022-09-10T17:08:29.241Z,46.10
2022-09-10T17:10:56.790Z,45.98
2022-09-10T17:13:23.606Z,46.84
2022-09-10T17:15:53.320Z,47.08
2022-09-10T17:18:20.537Z,47.18
2022-09-10T17:20:48.510Z,48.15
2022-09-10T17:23:18.631Z,48.98
2022-09-10T17:25:45.561Z,48.61
2022-09-10T17:28:12.869Z,48.37
2022-09-10T17:30:39.723Z,47.79
2022-09-10T17:33:06.457Z,48.07
2022-09-10T17:35:33.176Z,47.75
2022-09-10T17:38:00.064Z,48.51
2022-09-10T17:40:26.798Z,47.69
2022-09-10T17:42:53.723Z,46.47
2022-09-10T17:45:21.283Z,47.46
2022-09-10T17:47:48.528Z,47.10
2022-09-10T17:50:15.451Z,46.94
2022-09-10T17:52:45.845Z,46.89
2022-09-10T17:55:12.640Z,46.57
2022-09-10T17:57:39.723Z,46.17
2022-09-10T18:00:07.195Z,46.03
2022-09-10T18:02:34.470Z,45.07
2022-09-10T18:05:01.839Z,44.06
2022-09-10T18:07:28.753Z,44.01
2022-09-10T18:09:55.602Z,43.57
2022-09-10T18:12:22.444Z,43.22
2022-09-10T18:14:49.216Z,43.25
2022-09-10T18:17:17.455Z,42.99
2022-09-10T18:19:44.298Z,42.37
2022-09-10T18:22:11.688Z,42.93
2022-09-10T18:24:39.452Z,42.19
2022-09-10T18:27:06.532Z,41.47
2022-09-10T18:29:33.459Z,41.15
2022-09-10T18:32:03.781Z,40.94
2022-09-10T18:34:30.993Z,41.31
2022-09-10T18:37:02.518Z,41.11
2022-09-10T18:39:31.502Z,41.20
2022-09-10T18:42:00.989Z,40.43
2022-09-10T18:44:33.110Z,41.52
2022-09-10T18:47:00.350Z,41.24
2022-09-10T18:49:27.098Z,41.14
2022-09-10T18:51:55.592Z,40.94
2022-09-10T18:54:24.389Z,41.52
2022-09-10T18:56:51.428Z,41.54
2022-09-10T18:59:20.361Z,42.17
2022-09-10T19:01:48.938Z,42.41
2022-09-10T19:04:21.969Z,42.40
2022-09-10T19:06:49.511Z,43.64
2022-09-10T19:09:21.900Z,44.58
2022-09-10T19:11:50.627Z,44.44
2022-09-10T19:14:21.313Z,45.76
2022-09-10T19:16:50.223Z,45.37
2022-09-10T19:19:19.935Z,46.06
2022-09-10T19:21:48.860Z,45.75
2022-09-10T19:24:17.105Z,45.69
2022-09-10T19:26:46.116Z,46.22
2022-09-10T19:29:17.978Z,46.69
2022-09-10T19:31:46.764Z,46.92
2022-09-10T19:34:16.156Z,47.13
2022-09-10T19:36:44.333Z,45.50
2022-09-10T19:39:14.155Z,45.96
2022-09-10T19:41:43.044Z,45.84
2022-09-10T19:44:12.467Z,45.32
2022-09-10T19:46:41.147Z,46.12
2022-09-10T19:49:10.124Z,46.75
2022-09-10T19:51:38.656Z,46.32
2022-09-10T19:54:06.723Z,45.63
2022-09-10T19:56:37.237Z,46.64
2022-09-10T19:59:08.693Z,46.96
2022-09-10T20:01:39.975Z,47.62
2022-09-10T20:04:09.297Z,46.94
2022-09-10T20:06:37.226Z,46.66
2022-09-10T20:09:05.826Z,46.37
2022-09-10T20:11:35.079Z,46.63
2022-09-10T20:14:11.284Z,46.01
2022-09-10T20:16:40.972Z,46.99
2022-09-10T20:19:07.949Z,48.15
2022-09-10T20:21:35.957Z,47.54
2022-09-10T20:24:05.563Z,46.77
2022-09-10T20:26:34.546Z,47.40
2022-09-10T20:29:07.388Z,47.20
2022-09-10T20:31:36.165Z,47.38
2022-09-10T20:34:05.528Z,46.96
2022-09-10T20:36:34.481Z,47.17
2022-09-10T20:39:02.066Z,48.20
2022-09-10T20:41:30.218Z,48.30
2022-09-10T20:43:59.681Z,47.74
2022-09-10T20:46:28.440Z,48.48
2022-09-10T20:49:05.768Z,47.67
2022-09-10T20:51:35.427Z,48.90
2022-09-10T20:54:03.659Z,48.00
2022-09-10T20:56:30.602Z,48.37
2022-09-10T20:58:57.632Z,48.08
2022-09-10T21:01:27.310Z,48.68
2022-09-10T21:03:57.766Z,49.10
2022-09-10T21:06:27.906Z,48.40
2022-09-10T21:08:58.205Z,47.99
2022-09-10T21:11:28.037Z,47.99
2022-09-10T21:13:57.282Z,47.42
2022-09-10T21:16:27.998Z,47.51
2022-09-10T21:19:22.292Z,48.12
2022-09-10T21:21:49.604Z,47.56
2022-09-10T21:24:19.095Z,47.54
2022-09-10T21:26:46.260Z,49.01
2022-09-10T21:29:15.592Z,47.98
2022-09-10T21:31:42.727Z,46.55
2022-09-10T21:34:09.693Z,46.79
2022-09-10T21:36:38.075Z,47.17
2022-09-10T21:39:07.313Z,46.18
2022-09-10T21:41:39.939Z,45.51
2022-09-10T21:44:14.140Z,45.57
2022-09-10T21:46:42.466Z,45.35
2022-09-10T21:49:09.520Z,45.71
2022-09-10T21:51:37.359Z,46.07
2022-09-10T21:54:04.880Z,45.41
2022-09-10T21:56:33.463Z,45.05
2022-09-10T21:59:01.281Z,46.51
2022-09-10T22:01:31.334Z,45.98
2022-09-10T22:04:00.569Z,45.34
2022-09-10T22:06:30.048Z,47.19
2022-09-10T22:08:59.436Z,47.01
2022-09-10T22:11:47.012Z,46.60
2022-09-10T22:14:16.691Z,47.30
2022-09-10T22:16:44.270Z,47.61
2022-09-10T22:19:20.421Z,47.50
2022-09-10T22:21:47.382Z,47.46
2022-09-10T22:24:15.072Z,47.21
2022-09-10T22:26:43.989Z,46.31
2022-09-10T22:29:12.511Z,45.86
2022-09-10T22:31:39.749Z,46.13
2022-09-10T22:34:10.140Z,46.30
2022-09-10T22:36:38.855Z,45.48
2022-09-10T22:39:12.389Z,45.37
2022-09-10T22:41:39.816Z,46.07
2022-09-10T22:44:07.007Z,45.77
2022-09-10T22:46:35.596Z,45.32
2022-09-10T22:49:04.900Z,45.99
2022-09-10T22:51:36.010Z,45.39
2022-09-10T22:54:04.741Z,46.15
2022-09-10T22:56:31.751Z,46.12
2022-09-10T22:58:59.748Z,46.60
2022-09-10T23:01:29.555Z,46.08
2022-09-10T23:04:01.805Z,46.54
2022-09-10T23:06:30.946Z,46.42
2022-09-10T23:09:03.602Z,46.07
2022-09-10T23:11:32.276Z,45.74
2022-09-10T23:14:01.531Z,45.72
2022-09-10T23:16:34.451Z,47.01
2022-09-10T23:19:04.687Z,47.50
2022-09-10T23:21:33.491Z,46.54
2022-09-10T23:24:02.930Z,47.30
2022-09-10T23:26:30.391Z,46.83
2022-09-10T23:28:57.576Z,45.71
2022-09-10T23:31:29.434Z,46.41
2022-09-10T23:34:05.159Z,48.18
2022-09-10T23:36:38.631Z,46.92
2022-09-10T23:39:17.200Z,46.63
2022-09-10T23:41:44.090Z,45.99
2022-09-10T23:44:10.837Z,45.94
2022-09-10T23:46:38.271Z,46.39
2022-09-10T23:49:07.534Z,46.23
2022-09-10T23:51:35.266Z,45.88
2022-09-10T23:54:02.779Z,46.68
2022-09-10T23:56:30.059Z,46.67
2022-09-10T23:58:59.615Z,46.11
